createdAt,value
2024-01-25T00:00:59.011Z,18.25
2024-01-25T00:03:25.753Z,17.59
2024-01-25T00:05:52.476Z,18.10
2024-01-25T00:08:19.161Z,17.73
2024-01-25T00:10:45.781Z,18.02
2024-01-25T00:13:13.176Z,18.46
2024-01-25T00:15:39.939Z,17.63
2024-01-25T00:18:06.640Z,18.72
2024-01-25T00:20:33.322Z,17.65
2024-01-25T00:22:59.967Z,18.47
2024-01-25T00:25:26.593Z,17.62
2024-01-25T00:27:53.497Z,18.46
2024-01-25T00:30:20.137Z,18.19
2024-01-25T00:32:46.796Z,18.64
2024-01-25T00:35:15.170Z,19.37
2024-01-25T00:37:42.134Z,19.80
2024-01-25T00:40:09.393Z,19.87
2024-01-25T00:42:38.730Z,20.09
2024-01-25T00:45:05.706Z,20.15
2024-01-25T00:47:32.506Z,20.20
2024-01-25T00:49:59.400Z,20.74
2024-01-25T00:52:26.380Z,20.70
2024-01-25T00:54:53.257Z,20.81
2024-01-25T00:57:20.097Z,20.59
2024-01-25T00:59:46.875Z,20.66
2024-01-25T01:02:13.999Z,20.76
2024-01-25T01:04:47.408Z,21.18
2024-01-25T01:07:15.786Z,21.18
2024-01-25T01:09:42.687Z,21.12
2024-01-25T01:12:09.332Z,21.23
2024-01-25T01:14:35.981Z,21.29
2024-01-25T01:17:02.649Z,21.54
2024-01-25T01:19:29.394Z,21.26
2024-01-25T01:21:56.099Z,21.61
2024-01-25T01:24:22.763Z,21.75
2024-01-25T01:26:50.127Z,21.67
2024-01-25T01:29:17.228Z,21.97
2024-01-25T01:31:43.953Z,21.69
2024-01-25T01:34:11.315Z,21.81
2024-01-25T01:36:38.048Z,21.63
2024-01-25T01:39:04.700Z,21.73
2024-01-25T01:41:31.477Z,21.72
2024-01-25T01:43:58.609Z,21.67
2024-01-25T01:46:44.295Z,21.79
2024-01-25T01:49:14.379Z,21.87
2024-01-25T01:51:41.495Z,21.93
2024-01-25T01:54:08.424Z,21.98
2024-01-25T01:56:35.142Z,21.87
2024-01-25T01:59:02.103Z,22.39
2024-01-25T02:01:29.193Z,21.78
2024-01-25T02:03:57.397Z,22.25
2024-01-25T02:06:27.224Z,22.45
2024-01-25T02:08:59.760Z,22.15
2024-01-25T02:11:26.722Z,22.19
2024-01-25T02:13:53.408Z,22.30
2024-01-25T02:16:21.378Z,22.45
2024-01-25T02:18:48.980Z,22.55
2024-01-25T02:21:16.134Z,22.58
2024-01-25T02:23:42.937Z,22.26
2024-01-25T02:26:09.783Z,22.58
2024-01-25T02:28:36.497Z,22.84
2024-01-25T02:31:03.598Z,22.57
2024-01-25T02:33:30.391Z,22.87
2024-01-25T02:35:57.297Z,22.48
2024-01-25T02:38:24.024Z,22.94
2024-01-25T02:40:50.733Z,23.08
2024-01-25T02:43:18.598Z,23.23
2024-01-25T02:45:45.450Z,23.31
2024-01-25T02:48:12.254Z,23.03
2024-01-25T02:50:38.955Z,23.25
2024-01-25T02:53:06.581Z,23.13
2024-01-25T02:55:33.333Z,22.93
2024-01-25T02:57:59.995Z,23.37
2024-01-25T03:00:26.945Z,23.04
2024-01-25T03:02:53.628Z,23.33
2024-01-25T03:05:20.348Z,23.38
2024-01-25T03:07:47.368Z,23.34
2024-01-25T03:10:15.016Z,23.28
2024-01-25T03:12:41.806Z,23.77
2024-01-25T03:15:08.838Z,23.31
2024-01-25T03:17:35.485Z,23.50
2024-01-25T03:20:02.334Z,23.50
2024-01-25T03:22:29.135Z,23.57
2024-01-25T03:24:55.907Z,23.75
2024-01-25T03:27:22.742Z,23.62
2024-01-25T03:29:49.626Z,23.49
2024-01-25T03:32:16.359Z,23.42
2024-01-25T03:34:43.078Z,23.56
2024-01-25T03:37:09.813Z,23.40
2024-01-25T03:39:36.483Z,23.73
2024-01-25T03:42:03.203Z,23.76
2024-01-25T03:44:29.884Z,23.76
2024-01-25T03:46:56.471Z,24.00
2024-01-25T03:49:24.486Z,23.90
2024-01-25T03:51:51.776Z,23.90
2024-01-25T03:54:18.542Z,24.01
2024-01-25T03:56:45.280Z,23.56
2024-01-25T03:59:14.118Z,23.81
2024-01-25T04:01:44.822Z,23.72
2024-01-25T04:04:12.546Z,23.67
2024-01-25T04:06:40.320Z,23.93
2024-01-25T04:09:06.978Z,23.97
2024-01-25T04:11:33.645Z,22.46
2024-01-25T04:14:00.264Z,22.43
2024-01-25T04:16:27.472Z,22.32
2024-01-25T04:18:54.306Z,22.06
2024-01-25T04:21:21.018Z,22.58
2024-01-25T04:23:47.675Z,21.47
2024-01-25T04:26:14.312Z,22.56
2024-01-25T04:28:40.892Z,20.99
2024-01-25T04:31:07.623Z,21.93
2024-01-25T04:33:34.513Z,21.05
2024-01-25T04:36:01.373Z,21.60
2024-01-25T04:38:28.113Z,21.45
2024-01-25T04:40:54.748Z,21.18
2024-01-25T04:43:21.561Z,21.88
2024-01-25T04:45:49.091Z,20.85
2024-01-25T04:48:15.800Z,21.90
2024-01-25T04:50:42.635Z,20.43
2024-01-25T04:53:09.550Z,21.56
2024-01-25T04:55:36.289Z,20.56
2024-01-25T04:58:02.954Z,21.26
2024-01-25T05:00:29.691Z,21.35
2024-01-25T05:02:56.405Z,21.09
2024-01-25T05:05:23.160Z,21.43
2024-01-25T05:07:49.902Z,20.53
2024-01-25T05:10:16.838Z,21.60
2024-01-25T05:12:43.562Z,20.32
2024-01-25T05:15:10.253Z,21.08
2024-01-25T05:17:36.933Z,20.59
2024-01-25T05:20:04.434Z,21.04
2024-01-25T05:22:31.300Z,20.87
2024-01-25T05:24:57.989Z,20.88
2024-01-25T05:27:24.713Z,21.34
2024-01-25T05:29:51.414Z,20.27
2024-01-25T05:32:18.442Z,21.49
2024-01-25T05:34:45.171Z,20.28
2024-01-25T05:37:11.945Z,21.49
2024-01-25T05:39:38.756Z,20.54
2024-01-25T05:42:05.539Z,20.90
2024-01-25T05:44:32.251Z,20.94
2024-01-25T05:46:59.037Z,20.65
2024-01-25T05:49:25.755Z,21.60
2024-01-25T05:51:52.445Z,20.36
2024-01-25T05:54:19.102Z,21.41
2024-01-25T05:56:45.721Z,20.13
2024-01-25T05:59:12.610Z,21.49
2024-01-25T06:01:39.489Z,20.48
2024-01-25T06:04:06.260Z,20.83
2024-01-25T06:06:33.265Z,21.05
2024-01-25T06:09:07.162Z,20.61
2024-01-25T06:11:39.277Z,21.01
2024-01-25T06:14:09.377Z,20.61
2024-01-25T06:16:36.067Z,21.26
2024-01-25T06:19:03.877Z,20.31
2024-01-25T06:21:30.717Z,21.34
2024-01-25T06:23:57.495Z,20.54
2024-01-25T06:26:24.140Z,21.32
2024-01-25T06:28:50.800Z,20.71
2024-01-25T06:31:17.766Z,20.96
2024-01-25T06:33:48.451Z,21.17
2024-01-25T06:36:18.110Z,20.68
2024-01-25T06:38:44.728Z,21.69
2024-01-25T06:41:11.830Z,20.18
2024-01-25T06:43:38.480Z,21.53
2024-01-25T06:46:05.227Z,20.46
2024-01-25T06:48:31.959Z,21.17
2024-01-25T06:50:58.643Z,20.56
2024-01-25T06:53:25.290Z,20.93
2024-01-25T06:55:52.151Z,20.97
2024-01-25T06:58:19.673Z,20.56
2024-01-25T07:00:48.193Z,21.59
2024-01-25T07:03:16.375Z,20.07
2024-01-25T07:05:43.830Z,21.75
2024-01-25T07:08:14.540Z,20.52
2024-01-25T07:10:41.448Z,21.42
2024-01-25T07:13:08.336Z,20.66
2024-01-25T07:15:35.404Z,20.95
2024-01-25T07:18:02.268Z,21.33
2024-01-25T07:20:29.314Z,21.00
2024-01-25T07:22:56.174Z,21.83
2024-01-25T07:25:23.089Z,20.63
2024-01-25T07:27:50.813Z,21.81
2024-01-25T07:30:17.956Z,20.77
2024-01-25T07:32:44.881Z,21.63
2024-01-25T07:35:12.429Z,20.98
2024-01-25T07:37:40.135Z,21.29
2024-01-25T07:40:08.079Z,21.50
2024-01-25T07:42:34.995Z,21.06
2024-01-25T07:45:02.229Z,21.70
2024-01-25T07:47:28.916Z,20.51
2024-01-25T07:49:55.657Z,21.86
2024-01-25T07:52:23.947Z,20.52
2024-01-25T07:54:51.357Z,21.76
2024-01-25T07:57:18.154Z,21.16
2024-01-25T07:59:44.751Z,21.12
2024-01-25T08:02:11.674Z,21.32
2024-01-25T08:04:38.530Z,20.96
2024-01-25T08:07:05.403Z,21.58
2024-01-25T08:09:32.129Z,20.37
2024-01-25T08:11:58.754Z,21.68
2024-01-25T08:14:25.472Z,20.41
2024-01-25T08:16:52.249Z,21.59
2024-01-25T08:19:19.394Z,21.10
2024-01-25T08:21:46.831Z,21.31
2024-01-25T08:24:14.140Z,21.26
2024-01-25T08:26:40.825Z,20.86
2024-01-25T08:29:07.484Z,21.57
2024-01-25T08:31:34.458Z,20.63
2024-01-25T08:34:01.674Z,22.10
2024-01-25T08:36:28.466Z,22.75
2024-01-25T08:38:55.072Z,23.20
2024-01-25T08:41:21.880Z,22.95
2024-01-25T08:43:48.610Z,23.34
2024-01-25T08:46:16.754Z,23.60
2024-01-25T08:48:43.915Z,23.62
2024-01-25T08:51:10.702Z,23.51
2024-01-25T08:53:37.504Z,23.68
2024-01-25T08:56:06.331Z,23.59
2024-01-25T08:58:33.120Z,24.02
2024-01-25T09:00:59.955Z,24.05
2024-01-25T09:03:27.470Z,24.01
2024-01-25T09:05:54.340Z,24.22
2024-01-25T09:08:21.382Z,24.33
2024-01-25T09:10:48.247Z,24.24
2024-01-25T09:13:15.413Z,24.34
2024-01-25T09:15:42.201Z,24.57
2024-01-25T09:18:08.944Z,24.55
2024-01-25T09:20:35.860Z,24.33
2024-01-25T09:23:02.684Z,24.45
2024-01-25T09:25:31.692Z,24.46
2024-01-25T09:27:58.658Z,24.51
2024-01-25T09:30:25.498Z,24.73
2024-01-25T09:32:52.256Z,24.27
2024-01-25T09:35:19.496Z,24.34
2024-01-25T09:37:46.370Z,24.48
2024-01-25T09:40:13.169Z,24.69
2024-01-25T09:42:40.168Z,24.59
2024-01-25T09:45:07.507Z,24.34
2024-01-25T09:47:34.372Z,24.22
2024-01-25T09:50:01.729Z,24.30
2024-01-25T09:52:28.938Z,24.11
2024-01-25T09:54:57.660Z,24.27
2024-01-25T09:57:25.520Z,24.36
2024-01-25T09:59:52.147Z,24.21
2024-01-25T10:02:19.173Z,23.93
2024-01-25T10:04:50.242Z,23.72
2024-01-25T10:07:16.987Z,24.11
2024-01-25T10:09:44.009Z,24.16
2024-01-25T10:12:18.046Z,24.26
2024-01-25T10:14:45.862Z,24.34
2024-01-25T10:17:12.543Z,24.31
2024-01-25T10:19:40.397Z,24.50
2024-01-25T10:22:08.530Z,24.18
2024-01-25T10:24:36.140Z,24.20
2024-01-25T10:27:04.359Z,24.29
2024-01-25T10:29:31.581Z,23.93
2024-01-25T10:31:58.381Z,24.73
2024-01-25T10:34:25.376Z,24.46
2024-01-25T10:36:53.345Z,24.94
2024-01-25T10:39:20.564Z,25.17
2024-01-25T10:41:51.696Z,24.98
2024-01-25T10:44:20.551Z,24.76
2024-01-25T10:46:48.174Z,25.13
2024-01-25T10:49:15.148Z,24.95
2024-01-25T10:51:42.402Z,25.05
2024-01-25T10:54:09.382Z,24.97
2024-01-25T10:56:36.260Z,24.78
2024-01-25T10:59:02.988Z,24.39
2024-01-25T11:01:29.795Z,24.81
2024-01-25T11:03:57.109Z,24.54
2024-01-25T11:06:24.819Z,24.82
2024-01-25T11:08:51.522Z,24.69
2024-01-25T11:11:18.353Z,24.89
2024-01-25T11:13:45.325Z,24.62
2024-01-25T11:16:18.907Z,24.61
2024-01-25T11:18:49.281Z,24.55
2024-01-25T11:21:23.393Z,24.70
2024-01-25T11:23:51.269Z,24.79
2024-01-25T11:26:19.116Z,24.97
2024-01-25T11:28:45.797Z,24.94
2024-01-25T11:31:12.522Z,25.41
2024-01-25T11:33:39.295Z,25.27
2024-01-25T11:36:06.730Z,25.08
2024-01-25T11:38:33.324Z,25.23
2024-01-25T11:41:00.093Z,25.32
2024-01-25T11:43:26.888Z,25.00
2024-01-25T11:45:53.599Z,24.76
2024-01-25T11:48:20.323Z,25.14
2024-01-25T11:50:47.501Z,25.05
2024-01-25T11:53:14.165Z,25.29
2024-01-25T11:55:40.921Z,25.33
2024-01-25T11:58:08.184Z,25.29
2024-01-25T12:00:35.085Z,25.22
2024-01-25T12:03:01.855Z,25.45
2024-01-25T12:05:28.816Z,25.55
2024-01-25T12:07:55.633Z,25.65
2024-01-25T12:10:22.420Z,25.78
2024-01-25T12:12:49.455Z,26.18
2024-01-25T12:15:16.256Z,26.09
2024-01-25T12:17:43.091Z,26.08
2024-01-25T12:20:12.753Z,26.14
2024-01-25T12:22:40.141Z,26.43
2024-01-25T12:25:11.163Z,26.03
2024-01-25T12:27:38.991Z,26.19
2024-01-25T12:30:06.040Z,26.40
2024-01-25T12:32:32.737Z,26.15
2024-01-25T12:35:02.274Z,24.47
2024-01-25T12:37:29.230Z,25.63
2024-01-25T12:39:56.121Z,24.15
2024-01-25T12:42:23.155Z,24.44
2024-01-25T12:44:52.575Z,24.19
2024-01-25T12:47:19.409Z,23.89
2024-01-25T12:49:46.236Z,23.95
2024-01-25T12:52:13.901Z,23.15
2024-01-25T12:54:40.759Z,24.07
2024-01-25T12:57:07.704Z,22.22
2024-01-25T12:59:34.888Z,23.82
2024-01-25T13:02:01.657Z,22.50
2024-01-25T13:04:29.003Z,23.30
2024-01-25T13:06:57.187Z,22.68
2024-01-25T13:11:50.567Z,22.82
2024-01-25T13:14:17.680Z,22.02
2024-01-25T13:16:44.397Z,23.28
2024-01-25T13:19:13.161Z,21.51
2024-01-25T13:21:40.463Z,22.96
2024-01-25T13:24:08.090Z,21.77
2024-01-25T13:26:35.435Z,22.03
2024-01-25T13:29:02.111Z,21.59
2024-01-25T13:31:28.724Z,21.85
2024-01-25T13:33:55.689Z,22.26
2024-01-25T13:36:22.465Z,21.65
2024-01-25T13:38:49.139Z,22.33
2024-01-25T13:41:15.933Z,20.75
2024-01-25T13:43:42.576Z,21.98
2024-01-25T13:46:09.187Z,20.74
2024-01-25T13:48:35.909Z,21.57
2024-01-25T13:51:02.634Z,20.85
2024-01-25T13:53:29.282Z,21.05
2024-01-25T13:55:55.867Z,20.87
2024-01-25T13:58:22.550Z,20.41
2024-01-25T14:00:49.219Z,21.44
2024-01-25T14:03:16.487Z,20.27
2024-01-25T14:05:43.332Z,21.13
2024-01-25T14:08:10.144Z,19.83
2024-01-25T14:10:37.613Z,20.73
2024-01-25T14:13:04.604Z,20.07
2024-01-25T14:15:31.335Z,20.42
2024-01-25T14:17:58.260Z,20.32
2024-01-25T14:20:25.222Z,19.73
2024-01-25T14:22:52.173Z,20.55
2024-01-25T14:25:19.141Z,19.11
2024-01-25T14:27:49.221Z,20.24
2024-01-25T14:30:17.299Z,19.36
2024-01-25T14:32:44.220Z,19.83
2024-01-25T14:35:11.069Z,19.17
2024-01-25T14:37:37.914Z,19.58
2024-01-25T14:40:18.803Z,19.58
2024-01-25T14:42:51.588Z,19.06
2024-01-25T14:45:18.513Z,19.41
2024-01-25T14:47:45.254Z,18.67
2024-01-25T14:50:11.983Z,19.39
2024-01-25T14:52:38.783Z,18.37
2024-01-25T14:55:06.063Z,19.38
2024-01-25T14:57:32.904Z,18.65
2024-01-25T15:00:00.037Z,18.77
2024-01-25T15:02:26.651Z,18.84
2024-01-25T15:04:53.426Z,18.32
2024-01-25T15:07:22.938Z,18.88
2024-01-25T15:09:50.065Z,18.12
2024-01-25T15:12:17.022Z,19.07
2024-01-25T15:14:43.782Z,18.04
2024-01-25T15:17:10.470Z,19.05
2024-01-25T15:19:38.811Z,18.39
2024-01-25T15:22:06.026Z,18.78
2024-01-25T15:24:33.749Z,18.64
2024-01-25T15:27:00.617Z,18.56
2024-01-25T15:29:27.930Z,18.79
2024-01-25T15:31:54.636Z,18.22
2024-01-25T15:34:21.400Z,19.14
2024-01-25T15:36:48.321Z,18.05
2024-01-25T15:39:15.437Z,19.08
2024-01-25T15:41:42.117Z,18.37
2024-01-25T15:44:08.778Z,18.82
2024-01-25T15:46:35.547Z,18.43
2024-01-25T15:49:02.876Z,18.56
2024-01-25T15:51:29.659Z,18.64
2024-01-25T15:53:56.456Z,18.07
2024-01-25T15:56:23.509Z,19.12
2024-01-25T15:58:50.183Z,17.78
2024-01-25T16:01:17.042Z,18.93
2024-01-25T16:03:44.868Z,18.28
2024-01-25T16:06:11.885Z,18.82
2024-01-25T16:08:38.984Z,18.62
2024-01-25T16:11:07.622Z,18.55
2024-01-25T16:13:34.378Z,18.77
2024-01-25T16:16:01.210Z,17.92
2024-01-25T16:18:28.126Z,18.99
2024-01-25T16:20:55.609Z,17.61
2024-01-25T16:23:22.201Z,18.66
2024-01-25T16:25:48.787Z,17.85
2024-01-25T16:28:15.434Z,18.40
2024-01-25T16:30:42.227Z,18.08
2024-01-25T16:33:09.289Z,18.16
2024-01-25T16:35:35.986Z,18.25
2024-01-25T16:38:02.570Z,17.57
2024-01-25T16:40:29.246Z,18.70
2024-01-25T16:42:56.480Z,17.47
2024-01-25T16:45:23.240Z,18.58
2024-01-25T16:47:49.987Z,17.56
2024-01-25T16:50:16.913Z,18.21
2024-01-25T16:52:43.736Z,18.22
2024-01-25T16:55:10.526Z,18.88
2024-01-25T16:57:37.224Z,19.52
2024-01-25T17:00:04.256Z,19.51
2024-01-25T17:02:30.889Z,19.81
2024-01-25T17:04:57.622Z,20.05
2024-01-25T17:07:24.408Z,20.05
2024-01-25T17:09:51.309Z,20.37
2024-01-25T17:12:18.569Z,20.82
2024-01-25T17:14:45.413Z,20.72
2024-01-25T17:17:12.308Z,20.86
2024-01-25T17:19:39.243Z,20.72
2024-01-25T17:22:06.031Z,21.11
2024-01-25T17:24:32.657Z,21.57
2024-01-25T17:26:59.313Z,21.27
2024-01-25T17:29:25.933Z,21.38
2024-01-25T17:31:52.788Z,21.43
2024-01-25T17:34:19.737Z,21.29
2024-01-25T17:36:46.579Z,21.44
2024-01-25T17:39:13.355Z,22.05
2024-01-25T17:41:40.188Z,22.02
2024-01-25T17:44:06.933Z,22.51
2024-01-25T17:46:33.773Z,23.12
2024-01-25T17:49:00.843Z,22.57
2024-01-25T17:51:27.580Z,22.57
2024-01-25T17:53:54.366Z,22.39
2024-01-25T17:56:20.997Z,22.52
2024-01-25T17:58:48.385Z,22.44
2024-01-25T18:01:15.236Z,22.60
2024-01-25T18:03:41.957Z,22.57
2024-01-25T18:06:08.978Z,22.54
2024-01-25T18:08:36.342Z,22.22
2024-01-25T18:11:02.989Z,22.73
2024-01-25T18:13:29.728Z,22.91
2024-01-25T18:15:56.400Z,22.57
2024-01-25T18:18:23.100Z,22.83
2024-01-25T18:20:49.760Z,22.90
2024-01-25T18:23:16.405Z,22.89
2024-01-25T18:25:43.090Z,23.36
2024-01-25T18:28:09.737Z,22.84
2024-01-25T18:30:36.420Z,23.19
2024-01-25T18:33:03.315Z,23.22
2024-01-25T18:35:30.009Z,23.07
2024-01-25T18:37:56.580Z,23.16
2024-01-25T18:40:23.302Z,23.22
2024-01-25T18:42:52.399Z,23.38
2024-01-25T18:45:20.049Z,23.24
2024-01-25T18:47:46.790Z,22.78
2024-01-25T18:50:13.566Z,23.16
2024-01-25T18:52:40.321Z,23.12
2024-01-25T18:55:07.291Z,23.51
2024-01-25T18:57:35.149Z,23.35
2024-01-25T19:00:02.049Z,23.55
2024-01-25T19:02:28.759Z,23.87
2024-01-25T19:04:55.619Z,23.75
2024-01-25T19:07:22.782Z,23.59
2024-01-25T19:09:49.545Z,23.98
2024-01-25T19:12:16.299Z,24.18
2024-01-25T19:14:42.968Z,23.92
2024-01-25T19:17:09.570Z,24.20
2024-01-25T19:19:36.576Z,24.02
2024-01-25T19:22:03.366Z,23.87
2024-01-25T19:24:30.136Z,23.99
2024-01-25T19:26:56.737Z,23.68
2024-01-25T19:29:24.997Z,24.11
2024-01-25T19:31:51.636Z,23.79
2024-01-25T19:34:18.633Z,23.88
2024-01-25T19:36:45.460Z,24.65
2024-01-25T19:39:12.633Z,24.71
2024-01-25T19:41:39.373Z,24.89
2024-01-25T19:44:06.071Z,24.77
2024-01-25T19:46:32.695Z,25.06
2024-01-25T19:48:59.654Z,24.79
2024-01-25T19:51:26.326Z,25.35
2024-01-25T19:53:53.065Z,25.36
2024-01-25T19:56:21.265Z,25.30
2024-01-25T19:58:48.246Z,25.48
2024-01-25T20:01:16.019Z,25.10
2024-01-25T20:03:43.155Z,25.25
2024-01-25T20:06:12.282Z,25.35
2024-01-25T20:08:38.948Z,24.70
2024-01-25T20:11:05.769Z,25.11
2024-01-25T20:13:33.687Z,25.06
2024-01-25T20:16:00.336Z,24.60
2024-01-25T20:18:27.136Z,24.73
2024-01-25T20:20:53.886Z,25.20
2024-01-25T20:23:20.550Z,24.96
2024-01-25T20:25:47.244Z,24.75
2024-01-25T20:28:15.212Z,24.77
2024-01-25T20:30:41.918Z,24.41
2024-01-25T20:33:08.594Z,24.75
2024-01-25T20:35:35.575Z,24.70
2024-01-25T20:38:02.165Z,24.46
2024-01-25T20:40:28.829Z,24.69
2024-01-25T20:42:55.517Z,24.73
2024-01-25T20:45:23.354Z,24.27
2024-01-25T20:47:50.454Z,24.16
2024-01-25T20:50:22.727Z,23.95
2024-01-25T20:52:56.519Z,24.26
2024-01-25T20:55:23.163Z,24.16
2024-01-25T20:57:53.085Z,24.38
2024-01-25T21:00:21.257Z,23.02
2024-01-25T21:02:48.200Z,23.31
2024-01-25T21:05:15.424Z,23.26
2024-01-25T21:07:42.144Z,23.18
2024-01-25T21:10:10.246Z,22.34
2024-01-25T21:12:37.273Z,23.68
2024-01-25T21:15:05.112Z,22.22
2024-01-25T21:17:31.806Z,23.36
2024-01-25T21:19:58.577Z,22.15
2024-01-25T21:22:25.243Z,22.86
2024-01-25T21:27:21.228Z,22.55
2024-01-25T21:29:47.945Z,22.94
2024-01-25T21:32:14.540Z,21.89
2024-01-25T21:34:41.347Z,23.01
2024-01-25T21:37:08.116Z,21.61
2024-01-25T21:39:34.794Z,22.82
2024-01-25T21:42:01.549Z,21.50
2024-01-25T21:44:28.623Z,22.23
2024-01-25T21:46:55.288Z,21.76
2024-01-25T21:49:22.045Z,21.89
2024-01-25T21:51:48.948Z,22.24
2024-01-25T21:54:16.042Z,21.36
2024-01-25T21:56:42.875Z,22.07
2024-01-25T21:59:09.671Z,20.68
2024-01-25T22:01:38.405Z,21.54
2024-01-25T22:04:05.758Z,20.68
2024-01-25T22:06:32.820Z,21.53
2024-01-25T22:08:59.599Z,21.10
2024-01-25T22:11:26.648Z,21.29
2024-01-25T22:13:54.912Z,21.55
2024-01-25T22:16:22.485Z,20.56
2024-01-25T22:18:49.317Z,21.44
2024-01-25T22:21:18.966Z,20.31
2024-01-25T22:23:45.763Z,21.01
2024-01-25T22:26:12.648Z,20.33
2024-01-25T22:28:39.349Z,20.95
2024-01-25T22:31:08.855Z,20.59
2024-01-25T22:33:37.140Z,20.70
2024-01-25T22:36:05.027Z,20.79
2024-01-25T22:38:31.943Z,20.54
2024-01-25T22:40:58.672Z,21.61
2024-01-25T22:43:26.411Z,20.07
2024-01-25T22:45:53.516Z,21.32
2024-01-25T22:48:20.270Z,20.36
2024-01-25T22:50:46.968Z,21.01
2024-01-25T22:53:13.652Z,20.59
2024-01-25T22:55:40.307Z,20.64
2024-01-25T22:58:07.005Z,20.99
2024-01-25T23:00:34.402Z,20.67
2024-01-25T23:03:01.801Z,21.49
2024-01-25T23:05:28.587Z,20.25
2024-01-25T23:07:55.263Z,21.27
2024-01-25T23:10:21.956Z,20.13
2024-01-25T23:12:49.355Z,20.90
2024-01-25T23:15:16.104Z,20.46
2024-01-25T23:17:42.992Z,20.61
2024-01-25T23:20:09.784Z,20.61
2024-01-25T23:22:36.777Z,20.12
2024-01-25T23:25:03.897Z,20.94
2024-01-25T23:27:30.716Z,19.83
2024-01-25T23:29:57.318Z,20.79
2024-01-25T23:32:24.035Z,19.72
2024-01-25T23:34:50.811Z,20.85
2024-01-25T23:37:17.526Z,20.35
2024-01-25T23:39:44.153Z,20.59
2024-01-25T23:42:11.718Z,20.72
2024-01-25T23:44:38.380Z,20.13
2024-01-25T23:47:05.943Z,21.13
2024-01-25T23:49:32.874Z,19.96
2024-01-25T23:52:00.478Z,20.80
2024-01-25T23:54:27.531Z,20.07
2024-01-25T23:56:54.603Z,21.71
2024-01-25T23:59:21.428Z,21.90
